Karl Stefan Memorial Airport
KOFK : now visible

Airfield :











YOU CAN JOIN US ON...

 
LOGIN :

Register | Disclaimer

   EN    FR    IT 

 









Legend :    VFR   Marginal VFR   IFR   Intensive IFR   Very Intensive IFR
Visi :
Ceiling :
>= 8 km
>= 3000ft
5 to 8 km
1000 to 3000 ft
1500m to 5 km
500 to 1000 ft
800 to 1500m
200 to 500 ft
< 800m
< 200 ft
Symbols :   Thunderstorms  Fog  Heavy snow  Heavy precipitations  Wind > 20 kt






- Airport Elevation : 1573 ft


KOFK - Karl Stefan Memorial

CURRENT METAR :
  • 271856Z AUTO 34009KT 10SM -SN OVC011 M01/M03 A3008 RMK AO2 UPB09E56SNE09B28E32B56 SLP201 T10061033 PNO

EXPIRED METARs :
  • 271756Z AUTO 34010KT 9SM -SN OVC011 M01/M04 A3009 RMK AO2 SLP206 T10061039 11006 21011 51013 PNO
  • 271656Z AUTO 32011KT 9SM -SN OVC011 M01/M04 A3009 RMK AO2 SLP205 T10111039 PNO
  • 271627Z AUTO 34010KT 9SM -SN OVC010 M01/M03 A3008 RMK AO2 T10111033 PNO

TAF KOFK
Valid from the 27 at 18:00 until the 28 at 18:00 UTC


271720Z 2718/2818 32008KT P6SM OVC010



MET'MAP, your aeronautical weather chart ! - Copyright ORBIFLY December 2007 - Disclaimer

ORBIFLY MET'MAP TEAM :

Programming & Development : Alexandra Zaïnal
Concept & original design : Baudouin d'Aumeries
Assistance for programming : Marc-Olivier Méhu
Technical & hardware support : Manuel Goepfert

Contact : metmap@orbifly.com




SOURCES & CREDITS :

   NOAA       Earth
Advisory